sensor_id;sensor_type;location;lat;lon;timestamp;temperature;humidity
70271;SHT31;57680;54.292;18.598;2023-03-13T00:01:57;-2.36;82.82
70271;SHT31;57680;54.292;18.598;2023-03-13T00:04:22;-2.39;83.09
70271;SHT31;57680;54.292;18.598;2023-03-13T00:06:48;-2.43;83.24
70271;SHT31;57680;54.292;18.598;2023-03-13T00:09:15;-2.39;83.45
70271;SHT31;57680;54.292;18.598;2023-03-13T00:11:41;-2.36;83.64
70271;SHT31;57680;54.292;18.598;2023-03-13T00:14:06;-2.29;83.76
70271;SHT31;57680;54.292;18.598;2023-03-13T00:16:32;-2.22;83.83
70271;SHT31;57680;54.292;18.598;2023-03-13T00:18:58;-2.16;83.74
70271;SHT31;57680;54.292;18.598;2023-03-13T00:21:25;-2.12;83.57
70271;SHT31;57680;54.292;18.598;2023-03-13T00:23:51;-2.09;83.52
70271;SHT31;57680;54.292;18.598;2023-03-13T00:26:19;-2.05;83.42
70271;SHT31;57680;54.292;18.598;2023-03-13T00:28:45;-2.01;83.35
70271;SHT31;57680;54.292;18.598;2023-03-13T00:31:12;-1.99;83.39
70271;SHT31;57680;54.292;18.598;2023-03-13T00:33:43;-1.90;83.43
70271;SHT31;57680;54.292;18.598;2023-03-13T00:36:11;-1.85;83.26
70271;SHT31;57680;54.292;18.598;2023-03-13T00:38:38;-1.81;83.23
70271;SHT31;57680;54.292;18.598;2023-03-13T00:41:12;-1.75;83.10
70271;SHT31;57680;54.292;18.598;2023-03-13T00:43:39;-1.70;82.93
70271;SHT31;57680;54.292;18.598;2023-03-13T00:46:05;-1.66;82.96
70271;SHT31;57680;54.292;18.598;2023-03-13T00:48:31;-1.61;83.17
70271;SHT31;57680;54.292;18.598;2023-03-13T00:50:57;-1.59;82.96
70271;SHT31;57680;54.292;18.598;2023-03-13T00:53:22;-1.56;82.91
70271;SHT31;57680;54.292;18.598;2023-03-13T00:56:00;-1.53;82.94
70271;SHT31;57680;54.292;18.598;2023-03-13T00:58:27;-1.54;82.97
70271;SHT31;57680;54.292;18.598;2023-03-13T01:00:54;-1.51;83.08
70271;SHT31;57680;54.292;18.598;2023-03-13T01:03:21;-1.51;83.01
70271;SHT31;57680;54.292;18.598;2023-03-13T01:06:00;-1.46;83.02
70271;SHT31;57680;54.292;18.598;2023-03-13T01:08:27;-1.47;83.08
70271;SHT31;57680;54.292;18.598;2023-03-13T01:11:08;-1.46;83.05
70271;SHT31;57680;54.292;18.598;2023-03-13T01:13:34;-1.44;83.01
70271;SHT31;57680;54.292;18.598;2023-03-13T01:16:08;-1.43;83.07
70271;SHT31;57680;54.292;18.598;2023-03-13T01:18:36;-1.40;83.11
70271;SHT31;57680;54.292;18.598;2023-03-13T01:21:02;-1.36;83.17
70271;SHT31;57680;54.292;18.598;2023-03-13T01:23:28;-1.35;83.15
70271;SHT31;57680;54.292;18.598;2023-03-13T01:25:54;-1.33;83.28
70271;SHT31;57680;54.292;18.598;2023-03-13T01:28:21;-1.29;83.07
70271;SHT31;57680;54.292;18.598;2023-03-13T01:30:46;-1.26;82.99
70271;SHT31;57680;54.292;18.598;2023-03-13T01:33:12;-1.22;82.87
70271;SHT31;57680;54.292;18.598;2023-03-13T01:35:37;-1.22;82.79
70271;SHT31;57680;54.292;18.598;2023-03-13T01:38:02;-1.22;82.78
70271;SHT31;57680;54.292;18.598;2023-03-13T01:40:28;-1.20;82.64
70271;SHT31;57680;54.292;18.598;2023-03-13T01:42:56;-1.22;82.52
70271;SHT31;57680;54.292;18.598;2023-03-13T01:45:55;-1.23;82.63
70271;SHT31;57680;54.292;18.598;2023-03-13T01:50:54;-1.23;82.95
70271;SHT31;57680;54.292;18.598;2023-03-13T01:53:21;-1.28;83.06
70271;SHT31;57680;54.292;18.598;2023-03-13T01:55:47;-1.32;83.21
70271;SHT31;57680;54.292;18.598;2023-03-13T01:58:13;-1.35;83.36
70271;SHT31;57680;54.292;18.598;2023-03-13T02:00:39;-1.33;83.58
70271;SHT31;57680;54.292;18.598;2023-03-13T02:03:09;-1.33;83.71
70271;SHT31;57680;54.292;18.598;2023-03-13T02:05:35;-1.30;83.90
70271;SHT31;57680;54.292;18.598;2023-03-13T02:08:07;-1.32;84.06
70271;SHT31;57680;54.292;18.598;2023-03-13T02:10:43;-1.26;84.17
70271;SHT31;57680;54.292;18.598;2023-03-13T02:13:11;-1.23;84.28
70271;SHT31;57680;54.292;18.598;2023-03-13T02:15:40;-1.17;84.38
70271;SHT31;57680;54.292;18.598;2023-03-13T02:18:05;-1.15;84.44
70271;SHT31;57680;54.292;18.598;2023-03-13T02:20:31;-1.12;84.39
70271;SHT31;57680;54.292;18.598;2023-03-13T02:23:04;-1.09;84.47
70271;SHT31;57680;54.292;18.598;2023-03-13T02:25:36;-1.06;84.53
70271;SHT31;57680;54.292;18.598;2023-03-13T02:28:07;-1.01;84.46
70271;SHT31;57680;54.292;18.598;2023-03-13T02:30:33;-0.95;84.47
70271;SHT31;57680;54.292;18.598;2023-03-13T02:33:00;-0.93;84.41
70271;SHT31;57680;54.292;18.598;2023-03-13T02:35:27;-0.88;84.41
70271;SHT31;57680;54.292;18.598;2023-03-13T02:37:56;-0.87;84.36
70271;SHT31;57680;54.292;18.598;2023-03-13T02:40:29;-0.84;84.35
70271;SHT31;57680;54.292;18.598;2023-03-13T02:42:57;-0.81;84.27
70271;SHT31;57680;54.292;18.598;2023-03-13T02:45:24;-0.78;84.28
70271;SHT31;57680;54.292;18.598;2023-03-13T02:47:51;-0.77;84.30
70271;SHT31;57680;54.292;18.598;2023-03-13T02:50:16;-0.77;84.33
70271;SHT31;57680;54.292;18.598;2023-03-13T02:52:51;-0.78;84.28
70271;SHT31;57680;54.292;18.598;2023-03-13T02:55:24;-0.74;84.25
70271;SHT31;57680;54.292;18.598;2023-03-13T02:57:50;-0.72;84.19
70271;SHT31;57680;54.292;18.598;2023-03-13T03:00:16;-0.74;84.32
70271;SHT31;57680;54.292;18.598;2023-03-13T03:02:43;-0.70;84.53
70271;SHT31;57680;54.292;18.598;2023-03-13T03:05:09;-0.65;84.86
70271;SHT31;57680;54.292;18.598;2023-03-13T03:07:35;-0.60;84.99
70271;SHT31;57680;54.292;18.598;2023-03-13T03:10:00;-0.56;85.09
70271;SHT31;57680;54.292;18.598;2023-03-13T03:12:26;-0.50;85.08
70271;SHT31;57680;54.292;18.598;2023-03-13T03:14:51;-0.49;85.08
70271;SHT31;57680;54.292;18.598;2023-03-13T03:17:17;-0.45;85.00
70271;SHT31;57680;54.292;18.598;2023-03-13T03:19:43;-0.40;85.06
70271;SHT31;57680;54.292;18.598;2023-03-13T03:22:08;-0.33;85.20
70271;SHT31;57680;54.292;18.598;2023-03-13T03:24:34;-0.27;85.27
70271;SHT31;57680;54.292;18.598;2023-03-13T03:27:00;-0.24;85.25
70271;SHT31;57680;54.292;18.598;2023-03-13T03:29:25;-0.16;85.22
70271;SHT31;57680;54.292;18.598;2023-03-13T03:31:51;-0.12;85.25
70271;SHT31;57680;54.292;18.598;2023-03-13T03:34:16;-0.10;85.20
70271;SHT31;57680;54.292;18.598;2023-03-13T03:36:41;-0.03;85.16
70271;SHT31;57680;54.292;18.598;2023-03-13T03:39:08;-0.02;85.00
70271;SHT31;57680;54.292;18.598;2023-03-13T03:41:33;-0.02;85.05
70271;SHT31;57680;54.292;18.598;2023-03-13T03:43:59;0.04;85.11
70271;SHT31;57680;54.292;18.598;2023-03-13T03:46:24;0.02;85.14
70271;SHT31;57680;54.292;18.598;2023-03-13T03:48:49;0.02;85.12
70271;SHT31;57680;54.292;18.598;2023-03-13T03:51:15;0.07;85.29
70271;SHT31;57680;54.292;18.598;2023-03-13T03:53:40;0.08;85.34
70271;SHT31;57680;54.292;18.598;2023-03-13T03:56:06;0.10;85.40
70271;SHT31;57680;54.292;18.598;2023-03-13T03:58:31;0.12;85.39
70271;SHT31;57680;54.292;18.598;2023-03-13T04:00:57;0.15;85.40
70271;SHT31;57680;54.292;18.598;2023-03-13T04:03:23;0.17;85.59
70271;SHT31;57680;54.292;18.598;2023-03-13T04:05:49;0.18;85.60
70271;SHT31;57680;54.292;18.598;2023-03-13T04:08:15;0.22;85.63
70271;SHT31;57680;54.292;18.598;2023-03-13T04:10:41;0.22;85.74
70271;SHT31;57680;54.292;18.598;2023-03-13T04:13:06;0.24;85.88
70271;SHT31;57680;54.292;18.598;2023-03-13T04:15:32;0.28;85.88
70271;SHT31;57680;54.292;18.598;2023-03-13T04:17:57;0.29;85.89
70271;SHT31;57680;54.292;18.598;2023-03-13T04:20:22;0.29;85.84
70271;SHT31;57680;54.292;18.598;2023-03-13T04:22:48;0.31;85.84
70271;SHT31;57680;54.292;18.598;2023-03-13T04:25:13;0.31;85.97
70271;SHT31;57680;54.292;18.598;2023-03-13T04:27:39;0.31;86.08
70271;SHT31;57680;54.292;18.598;2023-03-13T04:30:05;0.32;86.25
70271;SHT31;57680;54.292;18.598;2023-03-13T04:32:30;0.31;86.40
70271;SHT31;57680;54.292;18.598;2023-03-13T04:34:56;0.33;86.54
70271;SHT31;57680;54.292;18.598;2023-03-13T04:37:21;0.38;86.67
70271;SHT31;57680;54.292;18.598;2023-03-13T04:39:47;0.41;86.64
70271;SHT31;57680;54.292;18.598;2023-03-13T04:42:12;0.48;86.66
70271;SHT31;57680;54.292;18.598;2023-03-13T04:44:38;0.48;86.79
70271;SHT31;57680;54.292;18.598;2023-03-13T04:47:04;0.50;86.94
70271;SHT31;57680;54.292;18.598;2023-03-13T04:49:30;0.53;86.98
70271;SHT31;57680;54.292;18.598;2023-03-13T04:51:55;0.56;87.06
70271;SHT31;57680;54.292;18.598;2023-03-13T04:54:21;0.58;87.25
70271;SHT31;57680;54.292;18.598;2023-03-13T04:56:47;0.60;87.41
70271;SHT31;57680;54.292;18.598;2023-03-13T04:59:13;0.62;87.55
70271;SHT31;57680;54.292;18.598;2023-03-13T05:01:39;0.65;87.69
70271;SHT31;57680;54.292;18.598;2023-03-13T05:04:04;0.65;87.83
70271;SHT31;57680;54.292;18.598;2023-03-13T05:06:30;0.68;88.07
70271;SHT31;57680;54.292;18.598;2023-03-13T05:08:55;0.75;88.11
70271;SHT31;57680;54.292;18.598;2023-03-13T05:11:21;0.76;88.53
70271;SHT31;57680;54.292;18.598;2023-03-13T05:13:46;0.81;88.46
70271;SHT31;57680;54.292;18.598;2023-03-13T05:16:12;0.86;88.53
70271;SHT31;57680;54.292;18.598;2023-03-13T05:18:37;0.89;88.43
70271;SHT31;57680;54.292;18.598;2023-03-13T05:21:03;0.90;88.57
70271;SHT31;57680;54.292;18.598;2023-03-13T05:23:29;0.91;88.71
70271;SHT31;57680;54.292;18.598;2023-03-13T05:25:54;0.96;88.89
70271;SHT31;57680;54.292;18.598;2023-03-13T05:28:20;1.03;88.99
70271;SHT31;57680;54.292;18.598;2023-03-13T05:30:45;1.07;89.05
70271;SHT31;57680;54.292;18.598;2023-03-13T05:33:11;1.16;89.06
70271;SHT31;57680;54.292;18.598;2023-03-13T05:35:36;1.19;89.12
70271;SHT31;57680;54.292;18.598;2023-03-13T05:38:02;1.21;89.16
70271;SHT31;57680;54.292;18.598;2023-03-13T05:40:27;1.19;89.34
70271;SHT31;57680;54.292;18.598;2023-03-13T05:42:53;1.21;89.65
70271;SHT31;57680;54.292;18.598;2023-03-13T05:45:18;1.31;89.90
70271;SHT31;57680;54.292;18.598;2023-03-13T05:47:44;1.28;90.02
70271;SHT31;57680;54.292;18.598;2023-03-13T05:50:09;1.31;90.01
70271;SHT31;57680;54.292;18.598;2023-03-13T05:52:35;1.32;90.27
70271;SHT31;57680;54.292;18.598;2023-03-13T05:55:01;1.38;90.22
70271;SHT31;57680;54.292;18.598;2023-03-13T05:57:26;1.41;90.36
70271;SHT31;57680;54.292;18.598;2023-03-13T05:59:52;1.42;90.36
70271;SHT31;57680;54.292;18.598;2023-03-13T06:02:18;1.47;90.31
70271;SHT31;57680;54.292;18.598;2023-03-13T06:04:43;1.50;90.25
70271;SHT31;57680;54.292;18.598;2023-03-13T06:07:08;1.55;90.43
70271;SHT31;57680;54.292;18.598;2023-03-13T06:09:34;1.58;90.49
70271;SHT31;57680;54.292;18.598;2023-03-13T06:11:59;1.63;90.29
70271;SHT31;57680;54.292;18.598;2023-03-13T06:14:25;1.66;90.46
70271;SHT31;57680;54.292;18.598;2023-03-13T06:16:50;1.72;90.52
70271;SHT31;57680;54.292;18.598;2023-03-13T06:19:16;1.79;90.74
70271;SHT31;57680;54.292;18.598;2023-03-13T06:21:41;1.89;91.42
70271;SHT31;57680;54.292;18.598;2023-03-13T06:24:07;1.92;90.30
70271;SHT31;57680;54.292;18.598;2023-03-13T06:26:32;1.92;90.15
70271;SHT31;57680;54.292;18.598;2023-03-13T06:28:58;1.93;90.63
70271;SHT31;57680;54.292;18.598;2023-03-13T06:31:23;1.93;90.36
70271;SHT31;57680;54.292;18.598;2023-03-13T06:33:53;1.95;90.41
70271;SHT31;57680;54.292;18.598;2023-03-13T06:36:18;1.99;90.71
70271;SHT31;57680;54.292;18.598;2023-03-13T06:38:44;1.96;90.99
70271;SHT31;57680;54.292;18.598;2023-03-13T06:41:10;2.02;91.20
70271;SHT31;57680;54.292;18.598;2023-03-13T06:43:36;1.99;91.37
70271;SHT31;57680;54.292;18.598;2023-03-13T06:46:04;2.07;91.46
70271;SHT31;57680;54.292;18.598;2023-03-13T06:48:30;2.19;91.27
70271;SHT31;57680;54.292;18.598;2023-03-13T06:50:55;2.21;91.28
70271;SHT31;57680;54.292;18.598;2023-03-13T06:53:21;2.31;91.29
70271;SHT31;57680;54.292;18.598;2023-03-13T06:55:46;2.36;90.91
70271;SHT31;57680;54.292;18.598;2023-03-13T06:58:12;2.40;91.03
70271;SHT31;57680;54.292;18.598;2023-03-13T07:00:37;2.45;91.16
70271;SHT31;57680;54.292;18.598;2023-03-13T07:03:03;2.55;90.69
70271;SHT31;57680;54.292;18.598;2023-03-13T07:05:28;2.62;90.36
70271;SHT31;57680;54.292;18.598;2023-03-13T07:07:54;2.62;90.15
70271;SHT31;57680;54.292;18.598;2023-03-13T07:10:19;2.64;90.34
70271;SHT31;57680;54.292;18.598;2023-03-13T07:12:45;2.77;90.58
70271;SHT31;57680;54.292;18.598;2023-03-13T07:15:10;2.80;90.37
70271;SHT31;57680;54.292;18.598;2023-03-13T07:17:36;2.87;90.12
70271;SHT31;57680;54.292;18.598;2023-03-13T07:20:03;2.93;89.79
70271;SHT31;57680;54.292;18.598;2023-03-13T07:22:30;3.02;89.68
70271;SHT31;57680;54.292;18.598;2023-03-13T07:24:55;3.08;89.49
70271;SHT31;57680;54.292;18.598;2023-03-13T07:27:21;3.11;89.21
70271;SHT31;57680;54.292;18.598;2023-03-13T07:29:47;3.08;88.25
70271;SHT31;57680;54.292;18.598;2023-03-13T07:32:12;3.22;89.19
70271;SHT31;57680;54.292;18.598;2023-03-13T07:34:37;3.23;88.70
70271;SHT31;57680;54.292;18.598;2023-03-13T07:37:03;3.22;88.75
70271;SHT31;57680;54.292;18.598;2023-03-13T07:39:28;3.30;88.73
70271;SHT31;57680;54.292;18.598;2023-03-13T07:41:53;3.42;89.41
70271;SHT31;57680;54.292;18.598;2023-03-13T07:44:19;3.47;88.60
70271;SHT31;57680;54.292;18.598;2023-03-13T07:46:45;3.46;88.04
70271;SHT31;57680;54.292;18.598;2023-03-13T07:49:10;3.50;88.12
70271;SHT31;57680;54.292;18.598;2023-03-13T07:51:36;3.51;88.17
70271;SHT31;57680;54.292;18.598;2023-03-13T07:54:01;3.60;87.86
70271;SHT31;57680;54.292;18.598;2023-03-13T07:56:26;3.64;88.00
70271;SHT31;57680;54.292;18.598;2023-03-13T07:58:52;3.74;87.65
70271;SHT31;57680;54.292;18.598;2023-03-13T08:01:20;3.73;87.63
70271;SHT31;57680;54.292;18.598;2023-03-13T08:03:46;3.73;87.09
70271;SHT31;57680;54.292;18.598;2023-03-13T08:06:13;3.75;87.81
70271;SHT31;57680;54.292;18.598;2023-03-13T08:08:39;3.81;87.70
70271;SHT31;57680;54.292;18.598;2023-03-13T08:11:24;3.84;87.92
70271;SHT31;57680;54.292;18.598;2023-03-13T08:13:51;3.82;87.91
70271;SHT31;57680;54.292;18.598;2023-03-13T08:16:22;3.75;88.13
70271;SHT31;57680;54.292;18.598;2023-03-13T08:18:50;3.74;88.29
70271;SHT31;57680;54.292;18.598;2023-03-13T08:21:18;3.74;88.60
70271;SHT31;57680;54.292;18.598;2023-03-13T08:23:44;3.78;88.52
70271;SHT31;57680;54.292;18.598;2023-03-13T08:26:12;3.80;89.02
70271;SHT31;57680;54.292;18.598;2023-03-13T08:28:39;3.81;88.80
70271;SHT31;57680;54.292;18.598;2023-03-13T08:31:20;3.84;89.14
70271;SHT31;57680;54.292;18.598;2023-03-13T08:33:46;3.88;89.72
70271;SHT31;57680;54.292;18.598;2023-03-13T08:36:22;3.92;89.46
70271;SHT31;57680;54.292;18.598;2023-03-13T08:38:48;4.02;89.48
70271;SHT31;57680;54.292;18.598;2023-03-13T08:41:16;4.09;89.72
70271;SHT31;57680;54.292;18.598;2023-03-13T08:43:42;4.09;88.59
70271;SHT31;57680;54.292;18.598;2023-03-13T08:46:07;4.13;89.01
70271;SHT31;57680;54.292;18.598;2023-03-13T08:48:33;4.21;88.88
70271;SHT31;57680;54.292;18.598;2023-03-13T08:51:03;4.18;88.78
70271;SHT31;57680;54.292;18.598;2023-03-13T08:53:30;4.18;89.02
70271;SHT31;57680;54.292;18.598;2023-03-13T08:55:55;4.19;88.99
70271;SHT31;57680;54.292;18.598;2023-03-13T08:58:21;4.22;88.88
70271;SHT31;57680;54.292;18.598;2023-03-13T09:00:47;4.26;89.00
70271;SHT31;57680;54.292;18.598;2023-03-13T09:03:12;4.32;88.90
70271;SHT31;57680;54.292;18.598;2023-03-13T09:05:38;4.32;88.60
70271;SHT31;57680;54.292;18.598;2023-03-13T09:08:03;4.35;88.69
70271;SHT31;57680;54.292;18.598;2023-03-13T09:10:31;4.32;88.72
70271;SHT31;57680;54.292;18.598;2023-03-13T09:12:56;4.31;88.92
70271;SHT31;57680;54.292;18.598;2023-03-13T09:15:21;4.29;88.63
70271;SHT31;57680;54.292;18.598;2023-03-13T09:17:47;4.32;89.07
70271;SHT31;57680;54.292;18.598;2023-03-13T09:20:12;4.33;89.05
70271;SHT31;57680;54.292;18.598;2023-03-13T09:22:38;4.31;88.94
70271;SHT31;57680;54.292;18.598;2023-03-13T09:25:04;4.26;89.46
70271;SHT31;57680;54.292;18.598;2023-03-13T09:27:29;4.29;89.43
70271;SHT31;57680;54.292;18.598;2023-03-13T09:29:54;4.32;89.46
70271;SHT31;57680;54.292;18.598;2023-03-13T09:32:20;4.29;89.42
70271;SHT31;57680;54.292;18.598;2023-03-13T09:34:46;4.31;89.21
70271;SHT31;57680;54.292;18.598;2023-03-13T09:37:11;4.35;89.41
70271;SHT31;57680;54.292;18.598;2023-03-13T09:39:37;4.42;89.51
70271;SHT31;57680;54.292;18.598;2023-03-13T09:42:19;4.50;89.51
70271;SHT31;57680;54.292;18.598;2023-03-13T09:44:49;4.59;89.27
70271;SHT31;57680;54.292;18.598;2023-03-13T09:47:29;4.63;89.24
70271;SHT31;57680;54.292;18.598;2023-03-13T09:50:06;4.79;89.25
70271;SHT31;57680;54.292;18.598;2023-03-13T09:52:39;4.81;88.86
70271;SHT31;57680;54.292;18.598;2023-03-13T09:55:16;4.88;88.80
70271;SHT31;57680;54.292;18.598;2023-03-13T09:58:03;4.94;88.98
70271;SHT31;57680;54.292;18.598;2023-03-13T10:00:43;4.95;88.87
70271;SHT31;57680;54.292;18.598;2023-03-13T10:05:38;4.97;89.27
70271;SHT31;57680;54.292;18.598;2023-03-13T10:08:33;4.97;88.69
70271;SHT31;57680;54.292;18.598;2023-03-13T10:13:48;5.12;88.71
70271;SHT31;57680;54.292;18.598;2023-03-13T10:16:36;5.21;88.90
70271;SHT31;57680;54.292;18.598;2023-03-13T10:19:25;5.31;88.71
70271;SHT31;57680;54.292;18.598;2023-03-13T10:21:52;5.32;88.67
70271;SHT31;57680;54.292;18.598;2023-03-13T10:27:09;5.18;88.79
70271;SHT31;57680;54.292;18.598;2023-03-13T10:29:35;5.15;89.12
70271;SHT31;57680;54.292;18.598;2023-03-13T10:32:06;5.14;89.58
70271;SHT31;57680;54.292;18.598;2023-03-13T10:34:57;5.12;89.75
70271;SHT31;57680;54.292;18.598;2023-03-13T10:37:30;5.12;89.83
70271;SHT31;57680;54.292;18.598;2023-03-13T10:40:20;5.14;90.07
70271;SHT31;57680;54.292;18.598;2023-03-13T10:42:50;5.14;90.52
70271;SHT31;57680;54.292;18.598;2023-03-13T10:45:19;5.20;90.40
70271;SHT31;57680;54.292;18.598;2023-03-13T10:47:53;5.14;90.24
70271;SHT31;57680;54.292;18.598;2023-03-13T10:50:22;5.18;90.64
70271;SHT31;57680;54.292;18.598;2023-03-13T10:52:48;5.21;90.69
70271;SHT31;57680;54.292;18.598;2023-03-13T10:55:25;5.32;90.76
70271;SHT31;57680;54.292;18.598;2023-03-13T10:58:04;5.36;90.51
70271;SHT31;57680;54.292;18.598;2023-03-13T11:00:34;5.43;90.50
70271;SHT31;57680;54.292;18.598;2023-03-13T11:03:02;5.46;90.49
70271;SHT31;57680;54.292;18.598;2023-03-13T11:05:32;5.46;90.50
70271;SHT31;57680;54.292;18.598;2023-03-13T11:08:55;5.52;90.39
70271;SHT31;57680;54.292;18.598;2023-03-13T11:11:00;5.59;90.50
70271;SHT31;57680;54.292;18.598;2023-03-13T11:13:33;5.63;90.38
70271;SHT31;57680;54.292;18.598;2023-03-13T11:16:05;5.66;90.62
70271;SHT31;57680;54.292;18.598;2023-03-13T11:21:26;5.72;90.64
70271;SHT31;57680;54.292;18.598;2023-03-13T11:23:57;5.82;90.52
70271;SHT31;57680;54.292;18.598;2023-03-13T11:26:49;5.80;90.10
70271;SHT31;57680;54.292;18.598;2023-03-13T11:29:26;5.85;90.37
70271;SHT31;57680;54.292;18.598;2023-03-13T11:31:59;5.83;90.50
70271;SHT31;57680;54.292;18.598;2023-03-13T11:34:41;5.83;90.61
70271;SHT31;57680;54.292;18.598;2023-03-13T11:37:09;5.76;90.47
70271;SHT31;57680;54.292;18.598;2023-03-13T11:42:17;5.67;91.05
70271;SHT31;57680;54.292;18.598;2023-03-13T12:01:07;5.63;92.70
70271;SHT31;57680;54.292;18.598;2023-03-13T12:03:54;5.62;92.81
70271;SHT31;57680;54.292;18.598;2023-03-13T12:06:40;5.60;92.81
70271;SHT31;57680;54.292;18.598;2023-03-13T12:12:01;5.53;93.25
70271;SHT31;57680;54.292;18.598;2023-03-13T12:14:40;5.53;93.44
70271;SHT31;57680;54.292;18.598;2023-03-13T12:17:12;5.56;93.67
70271;SHT31;57680;54.292;18.598;2023-03-13T12:19:54;5.62;93.64
70271;SHT31;57680;54.292;18.598;2023-03-13T12:22:29;5.65;93.74
70271;SHT31;57680;54.292;18.598;2023-03-13T12:25:05;5.66;93.43
70271;SHT31;57680;54.292;18.598;2023-03-13T12:27:42;5.62;93.44
70271;SHT31;57680;54.292;18.598;2023-03-13T12:33:27;5.69;93.85
70271;SHT31;57680;54.292;18.598;2023-03-13T12:36:12;5.76;93.58
70271;SHT31;57680;54.292;18.598;2023-03-13T12:38:49;5.82;93.60
70271;SHT31;57680;54.292;18.598;2023-03-13T12:41:37;5.85;93.42
70271;SHT31;57680;54.292;18.598;2023-03-13T12:44:08;5.92;93.53
70271;SHT31;57680;54.292;18.598;2023-03-13T12:46:47;5.93;93.46
70271;SHT31;57680;54.292;18.598;2023-03-13T12:52:36;5.86;93.44
70271;SHT31;57680;54.292;18.598;2023-03-13T13:00:21;5.80;94.14
70271;SHT31;57680;54.292;18.598;2023-03-13T13:03:14;5.80;94.41
70271;SHT31;57680;54.292;18.598;2023-03-13T13:06:09;5.79;94.53
70271;SHT31;57680;54.292;18.598;2023-03-13T13:08:41;5.82;94.62
70271;SHT31;57680;54.292;18.598;2023-03-13T13:16:42;5.85;95.08
70271;SHT31;57680;54.292;18.598;2023-03-13T13:24:57;5.87;95.42
70271;SHT31;57680;54.292;18.598;2023-03-13T13:29:59;5.92;95.64
70271;SHT31;57680;54.292;18.598;2023-03-13T13:32:36;5.93;96.00
70271;SHT31;57680;54.292;18.598;2023-03-13T13:37:46;5.93;96.05
70271;SHT31;57680;54.292;18.598;2023-03-13T13:43:17;6.04;96.25
70271;SHT31;57680;54.292;18.598;2023-03-13T13:46:02;6.17;96.26
70271;SHT31;57680;54.292;18.598;2023-03-13T13:48:33;6.18;96.11
70271;SHT31;57680;54.292;18.598;2023-03-13T13:58:58;6.48;95.95
70271;SHT31;57680;54.292;18.598;2023-03-13T14:01:24;6.51;95.98
70271;SHT31;57680;54.292;18.598;2023-03-13T14:03:56;6.51;95.80
70271;SHT31;57680;54.292;18.598;2023-03-13T14:06:29;6.58;95.84
70271;SHT31;57680;54.292;18.598;2023-03-13T14:09:08;6.54;95.80
70271;SHT31;57680;54.292;18.598;2023-03-13T14:11:38;6.56;95.70
70271;SHT31;57680;54.292;18.598;2023-03-13T14:16:37;6.61;95.81
70271;SHT31;57680;54.292;18.598;2023-03-13T14:19:02;6.68;95.85
70271;SHT31;57680;54.292;18.598;2023-03-13T14:21:28;6.73;95.81
70271;SHT31;57680;54.292;18.598;2023-03-13T14:23:54;6.76;95.64
70271;SHT31;57680;54.292;18.598;2023-03-13T14:26:22;6.79;95.47
70271;SHT31;57680;54.292;18.598;2023-03-13T14:28:52;6.86;95.68
70271;SHT31;57680;54.292;18.598;2023-03-13T14:31:33;6.86;95.64
70271;SHT31;57680;54.292;18.598;2023-03-13T14:34:04;6.95;95.82
70271;SHT31;57680;54.292;18.598;2023-03-13T14:36:44;7.06;95.83
70271;SHT31;57680;54.292;18.598;2023-03-13T14:39:16;7.17;95.83
70271;SHT31;57680;54.292;18.598;2023-03-13T14:41:45;7.27;95.59
70271;SHT31;57680;54.292;18.598;2023-03-13T14:44:31;7.38;95.51
70271;SHT31;57680;54.292;18.598;2023-03-13T14:47:06;7.44;95.22
70271;SHT31;57680;54.292;18.598;2023-03-13T14:49:34;7.53;94.94
70271;SHT31;57680;54.292;18.598;2023-03-13T14:52:06;7.54;94.85
70271;SHT31;57680;54.292;18.598;2023-03-13T14:57:35;7.61;94.88
70271;SHT31;57680;54.292;18.598;2023-03-13T15:00:41;7.65;94.72
70271;SHT31;57680;54.292;18.598;2023-03-13T15:03:31;7.71;94.76
70271;SHT31;57680;54.292;18.598;2023-03-13T15:08:37;7.70;94.43
70271;SHT31;57680;54.292;18.598;2023-03-13T15:13:44;7.73;94.66
70271;SHT31;57680;54.292;18.598;2023-03-13T15:16:18;7.68;94.54
70271;SHT31;57680;54.292;18.598;2023-03-13T15:18:44;7.68;94.94
70271;SHT31;57680;54.292;18.598;2023-03-13T15:23:40;7.77;94.73
70271;SHT31;57680;54.292;18.598;2023-03-13T15:26:05;7.77;94.83
70271;SHT31;57680;54.292;18.598;2023-03-13T15:28:31;7.78;94.64
70271;SHT31;57680;54.292;18.598;2023-03-13T15:30:58;7.73;94.66
70271;SHT31;57680;54.292;18.598;2023-03-13T15:33:26;7.73;95.09
70271;SHT31;57680;54.292;18.598;2023-03-13T15:35:53;7.68;94.90
70271;SHT31;57680;54.292;18.598;2023-03-13T15:38:21;7.73;94.93
70271;SHT31;57680;54.292;18.598;2023-03-13T15:40:47;7.75;95.14
70271;SHT31;57680;54.292;18.598;2023-03-13T15:43:13;7.75;95.25
70271;SHT31;57680;54.292;18.598;2023-03-13T15:45:41;7.75;95.36
70271;SHT31;57680;54.292;18.598;2023-03-13T15:48:22;7.74;95.46
70271;SHT31;57680;54.292;18.598;2023-03-13T15:51:01;7.78;95.71
70271;SHT31;57680;54.292;18.598;2023-03-13T15:53:29;7.88;95.47
70271;SHT31;57680;54.292;18.598;2023-03-13T15:55:58;7.84;95.31
70271;SHT31;57680;54.292;18.598;2023-03-13T15:58:23;7.88;95.38
70271;SHT31;57680;54.292;18.598;2023-03-13T16:00:49;7.91;95.21
70271;SHT31;57680;54.292;18.598;2023-03-13T16:03:25;7.98;95.27
70271;SHT31;57680;54.292;18.598;2023-03-13T16:05:51;8.03;95.19
70271;SHT31;57680;54.292;18.598;2023-03-13T16:08:20;8.10;95.07
70271;SHT31;57680;54.292;18.598;2023-03-13T16:10:46;8.09;94.76
70271;SHT31;57680;54.292;18.598;2023-03-13T16:13:12;8.15;94.61
70271;SHT31;57680;54.292;18.598;2023-03-13T16:15:37;8.13;94.53
70271;SHT31;57680;54.292;18.598;2023-03-13T16:18:03;8.10;94.28
70271;SHT31;57680;54.292;18.598;2023-03-13T16:20:31;8.16;94.30
70271;SHT31;57680;54.292;18.598;2023-03-13T16:22:56;8.16;94.37
70271;SHT31;57680;54.292;18.598;2023-03-13T16:25:23;8.17;94.29
70271;SHT31;57680;54.292;18.598;2023-03-13T16:27:49;8.17;94.06
70271;SHT31;57680;54.292;18.598;2023-03-13T16:30:33;8.16;94.13
70271;SHT31;57680;54.292;18.598;2023-03-13T16:32:59;8.23;94.08
70271;SHT31;57680;54.292;18.598;2023-03-13T16:35:26;8.21;94.14
70271;SHT31;57680;54.292;18.598;2023-03-13T16:37:52;8.16;94.09
70271;SHT31;57680;54.292;18.598;2023-03-13T16:40:21;8.17;94.21
70271;SHT31;57680;54.292;18.598;2023-03-13T16:42:47;8.21;94.40
70271;SHT31;57680;54.292;18.598;2023-03-13T16:45:14;8.19;94.11
70271;SHT31;57680;54.292;18.598;2023-03-13T16:47:41;8.17;94.15
70271;SHT31;57680;54.292;18.598;2023-03-13T16:52:49;8.16;94.25
70271;SHT31;57680;54.292;18.598;2023-03-13T16:55:16;8.19;94.20
70271;SHT31;57680;54.292;18.598;2023-03-13T16:57:41;8.16;94.34
70271;SHT31;57680;54.292;18.598;2023-03-13T17:00:15;8.21;94.51
70271;SHT31;57680;54.292;18.598;2023-03-13T17:02:41;8.25;94.47
70271;SHT31;57680;54.292;18.598;2023-03-13T17:05:07;8.28;94.42
70271;SHT31;57680;54.292;18.598;2023-03-13T17:07:32;8.32;94.32
70271;SHT31;57680;54.292;18.598;2023-03-13T17:09:58;8.32;94.46